Time;durP1;ratioP1;P1;durP2;ratioP2;P2;SDS_P1;SDS_P2;PMS_P1;PMS_P2;Temp;Humidity;BMP_temperature;BMP_pressure;BME280_temperature;BME280_humidity;BME280_pressure;Samples;Min_cycle;Max_cycle;Signal;HPM_P1;HPM_P2
2022/04/08 00:02:01;;;;;;;17.45;3.40;;;8.90;73.80;;;;;;4883808;29;20116;-82
2022/04/08 00:04:30;;;;;;;14.45;2.85;;;8.90;73.80;;;;;;4885215;29;20057;-82
2022/04/08 00:06:58;;;;;;;13.80;2.83;;;8.90;73.70;;;;;;4886706;29;20399;-82
2022/04/08 00:09:26;;;;;;;11.52;2.50;;;8.90;73.70;;;;;;4887902;29;20049;-82
2022/04/08 00:11:53;;;;;;;12.30;2.33;;;8.80;73.70;;;;;;4887765;29;20053;-81
2022/04/08 00:14:20;;;;;;;12.25;2.17;;;8.70;73.60;;;;;;4884996;29;20123;-82
2022/04/08 00:16:47;;;;;;;10.63;2.13;;;8.70;73.70;;;;;;4882397;29;20057;-82
2022/04/08 00:19:14;;;;;;;8.70;2.22;;;8.70;73.70;;;;;;4897672;29;20131;-83
2022/04/08 00:21:41;;;;;;;9.70;1.90;;;8.60;73.80;;;;;;4890783;29;20069;-82
2022/04/08 00:24:08;;;;;;;9.25;2.05;;;8.60;73.80;;;;;;4887570;29;20045;-82
2022/04/08 00:26:41;;;;;;;9.82;2.17;;;8.50;73.90;;;;;;4887318;29;20048;-83
2022/04/08 00:29:09;;;;;;;9.68;1.95;;;8.50;73.90;;;;;;4898313;29;20128;-84
2022/04/08 00:31:35;;;;;;;7.38;2.10;;;8.40;74.00;;;;;;4884227;29;20052;-84
2022/04/08 00:34:02;;;;;;;8.70;1.65;;;8.40;74.00;;;;;;4887225;29;20060;-83
2022/04/08 00:36:29;;;;;;;11.45;2.45;;;8.40;74.10;;;;;;4886277;29;20049;-83
2022/04/08 00:38:57;;;;;;;10.73;1.92;;;8.40;74.20;;;;;;4887309;29;20214;-83
2022/04/08 00:41:24;;;;;;;5.82;1.50;;;8.30;74.20;;;;;;4884812;29;20479;-82
2022/04/08 00:43:51;;;;;;;7.38;1.55;;;8.20;74.30;;;;;;4883039;29;20577;-82
2022/04/08 00:46:17;;;;;;;10.30;2.00;;;8.20;74.30;;;;;;4886072;29;20587;-83
2022/04/08 00:48:44;;;;;;;7.78;1.70;;;8.20;74.30;;;;;;4886939;29;20053;-83
2022/04/08 00:51:13;;;;;;;8.52;1.73;;;8.20;74.40;;;;;;4886250;29;20109;-82
2022/04/08 00:53:40;;;;;;;10.77;2.33;;;8.10;74.40;;;;;;4886669;29;20104;-82
2022/04/08 00:56:07;;;;;;;8.18;1.92;;;8.10;74.50;;;;;;4881628;29;20060;-82
2022/04/08 00:58:36;;;;;;;9.38;1.80;;;8.00;74.50;;;;;;4884008;29;20064;-82
2022/04/08 01:01:03;;;;;;;9.95;2.28;;;8.00;74.60;;;;;;4886883;29;20120;-83
2022/04/08 01:03:30;;;;;;;7.00;1.65;;;8.00;74.60;;;;;;4886425;29;20445;-82
2022/04/08 01:05:57;;;;;;;10.52;1.83;;;8.00;74.60;;;;;;4887019;29;20120;-82
2022/04/08 01:08:24;;;;;;;11.73;2.53;;;8.00;74.70;;;;;;4884606;29;20075;-82
2022/04/08 01:10:53;;;;;;;9.82;1.85;;;7.90;74.70;;;;;;4882525;29;20105;-82
2022/04/08 01:13:21;;;;;;;12.23;2.10;;;7.90;74.70;;;;;;4883376;29;20064;-82
2022/04/08 01:15:48;;;;;;;10.35;1.83;;;7.90;74.80;;;;;;4886813;29;20130;-82
2022/04/08 01:18:15;;;;;;;10.48;2.40;;;7.90;74.80;;;;;;4885281;29;20052;-82
2022/04/08 01:20:42;;;;;;;11.45;2.38;;;7.90;74.80;;;;;;4886696;29;20403;-82
2022/04/08 01:23:10;;;;;;;11.77;2.33;;;7.90;74.90;;;;;;4882516;29;20113;-82
2022/04/08 01:25:37;;;;;;;14.73;2.67;;;7.90;74.90;;;;;;4893979;29;20063;-82
2022/04/08 01:28:04;;;;;;;9.30;2.08;;;7.90;75.00;;;;;;4886767;29;20053;-82
2022/04/08 01:30:31;;;;;;;8.75;2.20;;;7.90;75.00;;;;;;4886532;29;20056;-82
2022/04/08 01:32:58;;;;;;;10.45;1.95;;;7.90;75.00;;;;;;4886152;29;20053;-82
2022/04/08 01:35:25;;;;;;;10.60;2.10;;;7.80;75.10;;;;;;4884188;29;20080;-82
2022/04/08 01:37:52;;;;;;;11.48;2.55;;;7.90;75.10;;;;;;4882149;29;20668;-82
2022/04/08 01:40:19;;;;;;;11.13;2.22;;;7.80;75.10;;;;;;4884975;29;20060;-82
2022/04/08 01:42:46;;;;;;;15.40;2.55;;;7.80;75.10;;;;;;4886332;29;20061;-82
2022/04/08 01:45:13;;;;;;;10.48;2.47;;;7.80;75.10;;;;;;4886405;29;20502;-82
2022/04/08 01:47:40;;;;;;;10.30;2.60;;;7.70;75.20;;;;;;4885693;29;20049;-82
2022/04/08 01:50:07;;;;;;;14.40;2.38;;;7.80;75.20;;;;;;4881798;29;20096;-82
2022/04/08 01:52:34;;;;;;;14.65;2.80;;;7.80;75.30;;;;;;4883027;29;20111;-82
2022/04/08 01:55:05;;;;;;;16.23;3.28;;;7.70;75.30;;;;;;4886270;29;20507;-82
2022/04/08 01:57:33;;;;;;;10.40;2.70;;;7.70;75.30;;;;;;4886207;29;20053;-82
2022/04/08 02:00:00;;;;;;;16.30;3.28;;;7.70;75.40;;;;;;4886070;29;20045;-82
2022/04/08 02:02:27;;;;;;;14.75;2.58;;;7.70;75.40;;;;;;4883443;29;20104;-82
2022/04/08 02:04:55;;;;;;;16.52;3.13;;;7.70;75.40;;;;;;4881715;29;20090;-82
2022/04/08 02:07:22;;;;;;;18.40;3.35;;;7.70;75.50;;;;;;4882701;29;20053;-82
2022/04/08 02:09:48;;;;;;;13.65;3.00;;;7.70;75.60;;;;;;4885946;29;20052;-82
2022/04/08 02:12:15;;;;;;;15.27;3.42;;;7.70;75.60;;;;;;4885788;29;20101;-82
2022/04/08 02:14:42;;;;;;;13.20;3.03;;;7.70;75.70;;;;;;4886134;29;20481;-82
2022/04/08 02:17:09;;;;;;;20.35;3.60;;;7.70;75.80;;;;;;4881058;29;20510;-82
2022/04/08 02:19:37;;;;;;;15.65;3.45;;;7.70;75.80;;;;;;4893090;29;20570;-82
2022/04/08 02:22:05;;;;;;;18.70;3.55;;;7.70;75.90;;;;;;4885991;29;20108;-82
2022/04/08 02:24:33;;;;;;;18.20;3.97;;;7.70;75.90;;;;;;4885992;29;20117;-82
2022/04/08 02:27:00;;;;;;;12.63;2.70;;;7.70;76.00;;;;;;4885917;29;20577;-82
2022/04/08 02:29:27;;;;;;;17.33;3.25;;;7.70;76.10;;;;;;4883516;29;20725;-82
2022/04/08 02:31:56;;;;;;;14.75;3.38;;;7.70;76.10;;;;;;4881603;29;20144;-82
2022/04/08 02:34:23;;;;;;;16.60;3.88;;;7.70;76.20;;;;;;4894194;29;20053;-82
2022/04/08 02:36:50;;;;;;;17.48;4.20;;;7.70;76.30;;;;;;4887802;29;20057;-82
2022/04/08 02:39:17;;;;;;;16.50;3.67;;;7.70;76.30;;;;;;4885824;29;20041;-82
2022/04/08 02:41:44;;;;;;;18.40;3.90;;;7.70;76.30;;;;;;4885658;29;20060;-82
2022/04/08 02:44:12;;;;;;;16.58;4.32;;;7.70;76.40;;;;;;4881545;29;20055;-82
2022/04/08 02:46:39;;;;;;;18.50;3.78;;;7.70;76.40;;;;;;4882184;29;20109;-81
2022/04/08 02:49:06;;;;;;;20.45;3.70;;;7.70;76.40;;;;;;4885683;29;20503;-81
2022/04/08 02:51:33;;;;;;;16.23;3.67;;;7.70;76.40;;;;;;4885786;29;20057;-82
2022/04/08 02:53:59;;;;;;;19.30;4.50;;;7.70;76.50;;;;;;4885642;29;20048;-82
2022/04/08 02:56:26;;;;;;;13.30;3.47;;;7.70;76.50;;;;;;4883557;29;20056;-82
2022/04/08 02:58:54;;;;;;;15.63;3.53;;;7.70;76.50;;;;;;4880815;29;20056;-82
2022/04/08 03:01:21;;;;;;;13.68;3.47;;;7.60;76.50;;;;;;4882221;29;20498;-82
2022/04/08 03:03:48;;;;;;;13.95;3.17;;;7.70;76.60;;;;;;4885682;29;20053;-82
2022/04/08 03:06:15;;;;;;;14.30;3.58;;;7.70;76.60;;;;;;4885576;29;20063;-82
2022/04/08 03:08:42;;;;;;;15.27;3.10;;;7.60;76.60;;;;;;4885539;29;20048;-82
2022/04/08 03:11:09;;;;;;;14.90;3.03;;;7.70;76.70;;;;;;4881049;29;20052;-82
2022/04/08 03:13:36;;;;;;;11.93;2.67;;;7.60;76.70;;;;;;4881811;29;20471;-82
2022/04/08 03:16:03;;;;;;;14.77;3.28;;;7.60;76.70;;;;;;4888298;29;20589;-82
2022/04/08 03:18:30;;;;;;;15.00;3.25;;;7.60;76.70;;;;;;4888829;29;20048;-82
2022/04/08 03:20:57;;;;;;;13.30;2.55;;;7.60;76.80;;;;;;4888725;29;20060;-82
2022/04/08 03:23:24;;;;;;;15.77;2.55;;;7.60;76.80;;;;;;4886482;29;20045;-82
2022/04/08 03:25:50;;;;;;;16.30;4.00;;;7.50;76.80;;;;;;4884529;29;20057;-82
2022/04/08 03:28:17;;;;;;;12.68;2.75;;;7.50;76.80;;;;;;4887166;29;20477;-82
2022/04/08 03:30:45;;;;;;;12.65;2.58;;;7.50;76.90;;;;;;4888638;29;20510;-81
2022/04/08 03:33:13;;;;;;;13.05;2.72;;;7.50;76.90;;;;;;4888712;29;20076;-82
2022/04/08 03:35:39;;;;;;;14.15;2.65;;;7.50;76.90;;;;;;4888225;29;20048;-82
2022/04/08 03:38:06;;;;;;;12.25;3.17;;;7.50;77.00;;;;;;4884117;29;20100;-81
2022/04/08 03:40:35;;;;;;;11.13;2.42;;;7.50;77.00;;;;;;4885310;29;20562;-81
2022/04/08 03:43:03;;;;;;;9.20;2.42;;;7.50;77.00;;;;;;4888186;29;20056;-82
2022/04/08 03:45:30;;;;;;;12.18;2.65;;;7.50;77.10;;;;;;4888474;29;20049;-82
2022/04/08 03:47:57;;;;;;;11.02;2.45;;;7.40;77.10;;;;;;4888470;29;20108;-82
2022/04/08 03:50:24;;;;;;;10.55;2.67;;;7.50;77.10;;;;;;4885883;29;20049;-82
2022/04/08 03:52:51;;;;;;;11.00;2.72;;;7.50;77.10;;;;;;4883053;29;20057;-81
2022/04/08 03:55:17;;;;;;;10.65;2.20;;;7.40;77.20;;;;;;4887206;29;20076;-82
2022/04/08 03:57:44;;;;;;;10.20;2.30;;;7.40;77.20;;;;;;4887808;29;20060;-82
2022/04/08 04:00:12;;;;;;;12.57;2.58;;;7.40;77.20;;;;;;4888111;29;20097;-82
2022/04/08 04:02:39;;;;;;;12.50;2.67;;;7.40;77.30;;;;;;4887652;29;20052;-82
2022/04/08 04:05:06;;;;;;;10.00;2.70;;;7.40;77.30;;;;;;4883606;29;20124;-82
2022/04/08 04:07:33;;;;;;;12.35;2.42;;;7.40;77.30;;;;;;4885049;29;20057;-82
2022/04/08 04:10:01;;;;;;;9.65;2.10;;;7.40;77.40;;;;;;4887922;29;20060;-82
2022/04/08 04:12:28;;;;;;;9.30;2.47;;;7.40;77.40;;;;;;4887411;29;20061;-82
2022/04/08 04:14:56;;;;;;;11.98;2.95;;;7.40;77.40;;;;;;4887862;29;20096;-81
2022/04/08 04:17:23;;;;;;;9.95;2.45;;;7.40;77.50;;;;;;4885307;29;20071;-82
2022/04/08 04:19:50;;;;;;;9.70;2.47;;;7.40;77.50;;;;;;4883386;29;20053;-82
2022/04/08 04:22:17;;;;;;;12.77;2.47;;;7.40;77.50;;;;;;4886504;29;20109;-82
2022/04/08 04:24:45;;;;;;;11.10;2.25;;;7.40;77.50;;;;;;4887717;29;20101;-82
2022/04/08 04:27:12;;;;;;;9.13;2.33;;;7.40;77.50;;;;;;4887147;29;20187;-82
2022/04/08 04:29:39;;;;;;;10.95;2.30;;;7.40;77.50;;;;;;4886971;29;20554;-82
2022/04/08 04:32:06;;;;;;;12.57;2.83;;;7.40;77.60;;;;;;4883175;29;20096;-82
2022/04/08 04:34:36;;;;;;;7.72;2.22;;;7.40;77.60;;;;;;4884636;29;20053;-82
2022/04/08 04:37:04;;;;;;;8.60;2.42;;;7.40;77.60;;;;;;4887512;29;20045;-82
2022/04/08 04:39:32;;;;;;;12.15;2.80;;;7.40;77.60;;;;;;4887315;29;20083;-82
2022/04/08 04:41:59;;;;;;;10.55;2.30;;;7.40;77.70;;;;;;4887002;29;20085;-82
2022/04/08 04:44:27;;;;;;;13.73;2.55;;;7.40;77.70;;;;;;4885089;29;20055;-82
2022/04/08 04:46:55;;;;;;;12.15;2.60;;;7.40;77.70;;;;;;4883047;29;20057;-81
2022/04/08 04:49:22;;;;;;;11.98;2.80;;;7.40;77.70;;;;;;4883803;29;20049;-82
2022/04/08 04:51:50;;;;;;;7.03;2.05;;;7.40;77.70;;;;;;4887308;29;20057;-82
2022/04/08 04:54:18;;;;;;;7.78;2.10;;;7.40;77.70;;;;;;4887114;29;20056;-82
2022/04/08 04:56:45;;;;;;;8.27;2.20;;;7.40;77.80;;;;;;4887073;29;20082;-81
2022/04/08 04:59:12;;;;;;;9.23;2.40;;;7.40;77.80;;;;;;4883126;29;20048;-82
2022/04/08 05:01:39;;;;;;;11.73;2.28;;;7.40;77.80;;;;;;4883288;29;20113;-82
2022/04/08 05:04:06;;;;;;;8.85;2.20;;;7.40;77.80;;;;;;4887126;29;20049;-82
2022/04/08 05:06:34;;;;;;;7.18;1.95;;;7.40;77.80;;;;;;4886946;29;20467;-82
2022/04/08 05:09:05;;;;;;;8.57;2.20;;;7.40;77.80;;;;;;4886478;29;20421;-82
2022/04/08 05:11:32;;;;;;;7.43;2.13;;;7.40;77.80;;;;;;4885410;29;20064;-82
2022/04/08 05:14:00;;;;;;;12.30;2.33;;;7.40;77.80;;;;;;4882429;29;20049;-82
2022/04/08 05:16:28;;;;;;;10.10;2.95;;;7.40;77.80;;;;;;4884607;29;20084;-82
2022/04/08 05:18:56;;;;;;;13.63;2.85;;;7.30;77.80;;;;;;4886612;29;20136;-82
2022/04/08 05:21:24;;;;;;;10.23;3.15;;;7.40;77.80;;;;;;4886793;29;20056;-82
2022/04/08 05:23:51;;;;;;;10.40;2.92;;;7.40;77.80;;;;;;4886373;29;20053;-81
2022/04/08 05:26:18;;;;;;;9.65;2.70;;;7.40;77.90;;;;;;4883383;29;20048;-82
2022/04/08 05:28:45;;;;;;;9.57;3.45;;;7.40;77.90;;;;;;4882314;29;20430;-82
2022/04/08 05:31:13;;;;;;;12.25;4.20;;;7.30;77.90;;;;;;4884859;29;20049;-82
2022/04/08 05:33:40;;;;;;;8.43;3.33;;;7.40;77.90;;;;;;4886547;29;20138;-82
2022/04/08 05:36:07;;;;;;;10.60;4.05;;;7.40;77.90;;;;;;4886400;29;20121;-81
2022/04/08 05:38:34;;;;;;;11.23;4.00;;;7.40;77.90;;;;;;4886055;29;20535;-82
2022/04/08 05:41:01;;;;;;;10.32;3.40;;;7.30;77.90;;;;;;4888524;29;20060;-82
2022/04/08 05:43:28;;;;;;;8.75;3.83;;;7.30;78.00;;;;;;4895120;29;20124;-81
2022/04/08 05:45:55;;;;;;;10.27;3.38;;;7.30;78.00;;;;;;4894793;29;20478;-81
2022/04/08 05:48:23;;;;;;;9.57;3.33;;;7.30;78.00;;;;;;4893081;29;20048;-81
2022/04/08 05:50:50;;;;;;;9.48;3.60;;;7.30;78.00;;;;;;4892673;29;20482;-81
2022/04/08 05:53:17;;;;;;;8.20;3.00;;;7.30;78.00;;;;;;4893031;29;20207;-81
2022/04/08 05:56:02;;;;;;;;;;;7.40;78.10;;;;;;4894981;29;20079;-80
2022/04/08 05:58:30;;;;;;;10.65;3.78;;;7.30;78.10;;;;;;4895712;29;19927;-82
2022/04/08 06:00:57;;;;;;;7.60;3.10;;;7.30;78.10;;;;;;4892465;29;20104;-81
2022/04/08 06:03:24;;;;;;;10.30;3.40;;;7.30;78.10;;;;;;4893101;29;20049;-81
2022/04/08 06:05:51;;;;;;;7.32;3.15;;;7.30;78.10;;;;;;4892661;29;20096;-81
2022/04/08 06:08:18;;;;;;;8.55;3.22;;;7.30;78.20;;;;;;4892628;29;20506;-82
2022/04/08 06:10:45;;;;;;;9.23;3.03;;;7.30;78.20;;;;;;4908980;29;20055;-81
2022/04/08 06:13:13;;;;;;;9.35;3.30;;;7.30;78.30;;;;;;4893873;29;20052;-81
2022/04/08 06:15:40;;;;;;;9.93;2.75;;;7.30;78.20;;;;;;4894099;29;20056;-81
2022/04/08 06:18:09;;;;;;;10.35;3.00;;;7.30;78.30;;;;;;4892842;29;20045;-81
2022/04/08 06:20:36;;;;;;;7.07;2.95;;;7.30;78.30;;;;;;4893916;29;20533;-82
2022/04/08 06:23:03;;;;;;;8.38;2.85;;;7.30;78.30;;;;;;4893633;29;20108;-81
2022/04/08 06:25:30;;;;;;;8.57;2.63;;;7.30;78.40;;;;;;4895647;29;20052;-81
2022/04/08 06:28:05;;;;;;;8.25;2.90;;;7.40;78.40;;;;;;4892384;29;20052;-81
2022/04/08 06:30:34;;;;;;;10.15;2.90;;;7.30;78.40;;;;;;4892615;29;20053;-81
2022/04/08 06:33:02;;;;;;;9.75;3.45;;;7.30;78.40;;;;;;4894719;29;20067;-81
2022/04/08 06:35:29;;;;;;;8.90;2.95;;;7.30;78.50;;;;;;4892463;29;20113;-82
2022/04/08 06:38:00;;;;;;;9.18;3.13;;;7.40;78.50;;;;;;4894461;29;20116;-81
2022/04/08 06:40:27;;;;;;;11.43;2.92;;;7.30;78.50;;;;;;4895276;29;20045;-81
2022/04/08 06:42:58;;;;;;;8.27;3.47;;;7.30;78.50;;;;;;4892036;29;20061;-81
2022/04/08 06:45:28;;;;;;;9.27;3.30;;;7.40;78.50;;;;;;4892201;29;20047;-82
2022/04/08 06:47:55;;;;;;;9.15;2.97;;;7.30;78.50;;;;;;4892781;29;20497;-81
2022/04/08 06:50:23;;;;;;;7.82;3.60;;;7.40;78.60;;;;;;4894402;29;20065;-82
2022/04/08 06:52:50;;;;;;;10.57;3.80;;;7.40;78.60;;;;;;4898459;29;20052;-82
2022/04/08 06:55:18;;;;;;;11.80;3.60;;;7.40;78.60;;;;;;4898150;29;20108;-82
2022/04/08 06:57:45;;;;;;;9.77;3.45;;;7.40;78.60;;;;;;4897831;29;20065;-82
2022/04/08 07:00:13;;;;;;;12.43;3.78;;;7.40;78.60;;;;;;4896440;29;20096;-81
2022/04/08 07:02:40;;;;;;;11.00;3.35;;;7.40;78.60;;;;;;4896315;29;20463;-81
2022/04/08 07:05:08;;;;;;;10.75;3.70;;;7.40;78.60;;;;;;4896712;29;20049;-81
2022/04/08 07:07:37;;;;;;;6.35;3.13;;;7.40;78.60;;;;;;4899853;29;20064;-81
2022/04/08 07:10:06;;;;;;;10.90;3.25;;;7.40;78.60;;;;;;4896103;29;20120;-81
2022/04/08 07:12:33;;;;;;;13.65;3.63;;;7.40;78.70;;;;;;4895797;29;20395;-81
2022/04/08 07:15:00;;;;;;;11.07;3.30;;;7.40;78.70;;;;;;4896274;29;20104;-81
2022/04/08 07:17:31;;;;;;;10.15;3.13;;;7.40;78.70;;;;;;4896041;29;20057;-81
2022/04/08 07:20:16;;;;;;;10.32;3.53;;;7.40;78.70;;;;;;4880295;29;20083;-81
2022/04/08 07:22:46;;;;;;;9.88;3.38;;;7.40;78.80;;;;;;4898782;29;20417;-81
2022/04/08 07:25:13;;;;;;;8.43;3.13;;;7.40;78.80;;;;;;4898213;29;20052;-82
2022/04/08 07:27:47;;;;;;;11.52;3.53;;;7.40;78.80;;;;;;4895863;29;20068;-82
2022/04/08 07:30:17;;;;;;;9.18;3.08;;;7.50;78.90;;;;;;4895869;29;20471;-81
2022/04/08 07:32:45;;;;;;;11.25;3.42;;;7.40;78.90;;;;;;4895777;29;20051;-81
2022/04/08 07:35:13;;;;;;;10.90;3.78;;;7.40;78.90;;;;;;4880886;29;20071;-82
2022/04/08 07:37:40;;;;;;;9.18;3.40;;;7.40;78.90;;;;;;4899704;29;20395;-81
2022/04/08 07:40:08;;;;;;;9.32;3.58;;;7.40;79.00;;;;;;4895994;29;20060;-81
2022/04/08 07:42:35;;;;;;;9.05;3.47;;;7.40;79.00;;;;;;4897008;29;20056;-81
2022/04/08 07:45:04;;;;;;;9.73;3.58;;;7.40;79.00;;;;;;4895416;29;20080;-81
2022/04/08 07:47:31;;;;;;;8.43;2.97;;;7.40;79.10;;;;;;4895607;29;20053;-81
2022/04/08 07:50:03;;;;;;;12.30;3.35;;;7.40;79.10;;;;;;4896703;29;20049;-81
2022/04/08 07:52:30;;;;;;;7.60;2.85;;;7.50;79.10;;;;;;4898173;29;20056;-81
2022/04/08 07:54:56;;;;;;;9.15;2.90;;;7.40;79.10;;;;;;4894493;29;20048;-80
2022/04/08 07:57:23;;;;;;;9.25;3.10;;;7.40;79.00;;;;;;4895518;29;20049;-80
2022/04/08 07:59:51;;;;;;;10.40;2.72;;;7.40;79.00;;;;;;4894957;29;20109;-81
2022/04/08 08:02:18;;;;;;;9.20;2.40;;;7.40;79.00;;;;;;4895358;29;20053;-81
2022/04/08 08:04:49;;;;;;;7.78;2.90;;;7.40;79.00;;;;;;4897480;29;20542;-81
2022/04/08 08:07:16;;;;;;;8.02;2.25;;;7.40;79.00;;;;;;4896160;29;20502;-81
2022/04/08 08:09:43;;;;;;;9.27;3.15;;;7.40;79.00;;;;;;4895266;29;20057;-81
2022/04/08 08:12:26;;;;;;;6.38;2.42;;;7.40;79.00;;;;;;4894648;29;20061;-81
2022/04/08 08:14:54;;;;;;;9.02;2.60;;;7.30;79.00;;;;;;4894893;29;20044;-81
2022/04/08 08:17:21;;;;;;;8.93;2.42;;;7.30;79.00;;;;;;4896246;29;20068;-81
2022/04/08 08:19:48;;;;;;;6.90;2.20;;;7.30;79.00;;;;;;4897867;29;20056;-81
2022/04/08 08:22:22;;;;;;;10.77;2.60;;;7.30;79.10;;;;;;4897425;29;20053;-81
2022/04/08 08:24:49;;;;;;;5.68;2.10;;;7.30;79.10;;;;;;4896390;29;20045;-81
2022/04/08 08:27:16;;;;;;;6.95;2.28;;;7.30;79.10;;;;;;4894741;29;20048;-81
2022/04/08 08:29:43;;;;;;;7.05;2.10;;;7.30;79.10;;;;;;4894852;29;20136;-81
2022/04/08 08:32:10;;;;;;;7.43;2.30;;;7.30;79.10;;;;;;4879752;29;20068;-80
2022/04/08 08:34:37;;;;;;;6.53;2.10;;;7.20;79.10;;;;;;4897589;29;20088;-81
2022/04/08 08:37:04;;;;;;;9.93;2.63;;;7.20;79.10;;;;;;4894450;29;20104;-80
2022/04/08 08:39:32;;;;;;;9.70;2.25;;;7.20;79.10;;;;;;4894462;29;20100;-80
2022/04/08 08:41:59;;;;;;;9.18;2.05;;;7.20;79.10;;;;;;4894421;29;20482;-80
2022/04/08 08:44:26;;;;;;;7.55;1.90;;;7.20;79.10;;;;;;4894496;29;20069;-80
2022/04/08 08:46:54;;;;;;;6.13;1.80;;;7.20;79.10;;;;;;4896023;29;20048;-80
2022/04/08 08:49:25;;;;;;;9.82;2.10;;;7.20;79.10;;;;;;4896268;29;20080;-80
2022/04/08 08:51:57;;;;;;;7.13;2.00;;;7.10;79.20;;;;;;4894053;29;20048;-80
2022/04/08 08:54:24;;;;;;;6.75;1.85;;;7.10;79.20;;;;;;4895796;29;20052;-80
2022/04/08 08:56:52;;;;;;;6.57;1.80;;;7.20;79.20;;;;;;4894464;29;20045;-81
2022/04/08 08:59:19;;;;;;;6.05;1.50;;;7.10;79.20;;;;;;4895704;29;20048;-81
2022/04/08 09:01:48;;;;;;;4.82;1.60;;;7.10;79.20;;;;;;4896642;29;20056;-80
2022/04/08 09:04:16;;;;;;;6.05;1.63;;;7.10;79.20;;;;;;4895909;29;20478;-81
2022/04/08 09:06:43;;;;;;;4.75;1.60;;;7.10;79.20;;;;;;4893890;29;20421;-80
2022/04/08 09:09:13;;;;;;;4.63;1.45;;;7.10;79.20;;;;;;4893876;29;20059;-80
2022/04/08 09:11:41;;;;;;;5.03;1.65;;;7.10;79.30;;;;;;4895054;29;20076;-81
2022/04/08 09:14:08;;;;;;;5.30;2.28;;;7.10;79.30;;;;;;4894097;29;20097;-80
2022/04/08 09:16:39;;;;;;;6.65;1.60;;;7.10;79.20;;;;;;4897267;29;20056;-81
2022/04/08 09:19:10;;;;;;;3.95;1.40;;;7.10;79.20;;;;;;4893900;29;20399;-80
2022/04/08 09:21:37;;;;;;;4.32;1.48;;;7.10;79.20;;;;;;4893897;29;20104;-80
2022/04/08 09:24:07;;;;;;;7.05;1.50;;;7.10;79.20;;;;;;4893670;29;20061;-81
2022/04/08 09:26:36;;;;;;;6.78;1.58;;;7.20;79.20;;;;;;4893920;29;20523;-81
2022/04/08 09:29:04;;;;;;;4.50;1.20;;;7.10;79.10;;;;;;4894841;29;20049;-80
2022/04/08 09:31:32;;;;;;;7.18;1.30;;;7.20;79.10;;;;;;4896498;29;20053;-81
2022/04/08 09:33:59;;;;;;;3.25;1.15;;;7.20;79.00;;;;;;4893540;29;20059;-80
2022/04/08 09:36:30;;;;;;;4.68;1.42;;;7.20;79.00;;;;;;4895117;29;20052;-81
2022/04/08 09:38:58;;;;;;;5.00;1.38;;;7.20;78.90;;;;;;4894989;29;20092;-80
2022/04/08 09:41:40;;;;;;;6.60;1.42;;;7.10;78.90;;;;;;4893495;29;20105;-80
2022/04/08 09:44:09;;;;;;;5.30;1.20;;;7.10;78.80;;;;;;4893916;29;20045;-81
2022/04/08 09:46:36;;;;;;;3.90;1.10;;;7.10;78.80;;;;;;4896846;29;20049;-80
2022/04/08 09:49:05;;;;;;;5.82;1.20;;;7.10;78.80;;;;;;4893236;29;20119;-81
2022/04/08 09:51:39;;;;;;;5.43;1.45;;;7.10;78.70;;;;;;4892417;29;20052;-80
2022/04/08 09:54:10;;;;;;;2.38;1.00;;;7.20;78.70;;;;;;4893471;29;20097;-81
2022/04/08 09:56:38;;;;;;;4.97;1.27;;;7.10;78.60;;;;;;4893505;29;20053;-80
2022/04/08 09:59:15;;;;;;;3.85;1.05;;;7.10;78.60;;;;;;4893871;29;20117;-80
2022/04/08 10:02:03;;;;;;;3.28;1.10;;;7.10;78.50;;;;;;4893777;29;20106;-81
2022/04/08 10:04:33;;;;;;;4.70;1.25;;;7.10;78.50;;;;;;4895863;29;20399;-80
2022/04/08 10:07:02;;;;;;;3.92;1.10;;;7.10;78.40;;;;;;4893272;29;20056;-81
2022/04/08 10:09:32;;;;;;;4.80;1.23;;;7.10;78.40;;;;;;4892844;29;20053;-81
2022/04/08 10:12:06;;;;;;;3.17;1.20;;;7.00;78.30;;;;;;4893005;29;20048;-80
2022/04/08 10:14:45;;;;;;;4.38;1.70;;;7.00;78.30;;;;;;4894309;29;20064;-80
2022/04/08 10:17:12;;;;;;;6.18;1.63;;;7.00;78.20;;;;;;4879905;29;20049;-80
2022/04/08 10:19:39;;;;;;;5.15;1.55;;;7.00;78.10;;;;;;4893105;29;20100;-80
2022/04/08 10:22:19;;;;;;;4.28;1.17;;;6.90;78.00;;;;;;4894065;29;20476;-81
2022/04/08 10:24:54;;;;;;;4.32;1.45;;;6.90;77.90;;;;;;4895779;29;20104;-80
2022/04/08 10:27:34;;;;;;;5.00;1.70;;;6.90;77.80;;;;;;4898428;29;20055;-80
2022/04/08 10:30:13;;;;;;;4.85;1.73;;;6.90;77.60;;;;;;4896451;29;20108;-81
2022/04/08 10:32:40;;;;;;;2.85;1.23;;;6.80;77.40;;;;;;4898490;29;20048;-81
2022/04/08 10:35:18;;;;;;;6.00;2.00;;;6.80;77.30;;;;;;4897760;29;20108;-81
2022/04/08 10:37:59;;;;;;;4.88;2.13;;;6.70;77.20;;;;;;4896503;29;20060;-81
2022/04/08 10:40:37;;;;;;;4.55;1.63;;;6.70;77.10;;;;;;4899075;29;20055;-81
2022/04/08 10:43:10;;;;;;;3.50;1.60;;;6.60;77.00;;;;;;4896185;29;20052;-80
2022/04/08 10:45:38;;;;;;;4.75;1.67;;;6.60;77.00;;;;;;4896424;29;20072;-81
2022/04/08 10:48:10;;;;;;;5.20;1.65;;;6.60;76.90;;;;;;4896393;29;20049;-81
2022/04/08 10:50:39;;;;;;;5.97;1.63;;;6.50;76.80;;;;;;4896522;29;20049;-81
2022/04/08 10:53:17;;;;;;;6.03;1.73;;;6.50;76.80;;;;;;4897662;29;20103;-81
2022/04/08 10:55:46;;;;;;;5.38;2.05;;;6.50;76.70;;;;;;4896362;29;20052;-81
2022/04/08 10:58:15;;;;;;;6.18;2.35;;;6.50;76.70;;;;;;4897475;29;20067;-81
2022/04/08 11:00:42;;;;;;;4.80;2.50;;;6.40;76.70;;;;;;4896205;29;20055;-81
2022/04/08 11:03:12;;;;;;;5.80;2.72;;;6.40;76.70;;;;;;4896388;29;20114;-81
2022/04/08 11:05:39;;;;;;;6.03;2.80;;;6.40;76.70;;;;;;4896317;29;20045;-81
2022/04/08 11:08:07;;;;;;;6.38;2.90;;;6.40;76.70;;;;;;4897091;29;20511;-81
2022/04/08 11:10:34;;;;;;;6.85;2.40;;;6.40;76.70;;;;;;4899698;29;20060;-81
2022/04/08 11:13:01;;;;;;;5.18;2.40;;;6.40;76.70;;;;;;4895490;29;20514;-81
2022/04/08 11:15:30;;;;;;;4.72;2.25;;;6.40;76.70;;;;;;4896041;29;20053;-81
2022/04/08 11:18:00;;;;;;;6.80;1.95;;;6.40;76.70;;;;;;4895907;29;20048;-81
2022/04/08 11:20:27;;;;;;;5.82;2.30;;;6.40;76.70;;;;;;4896172;29;20060;-81
2022/04/08 11:22:55;;;;;;;5.90;2.08;;;6.40;76.70;;;;;;4898465;29;20060;-81
2022/04/08 11:25:30;;;;;;;5.97;2.00;;;6.40;76.70;;;;;;4897946;29;20053;-81
2022/04/08 11:28:04;;;;;;;4.78;1.80;;;6.40;76.60;;;;;;4895271;29;20053;-81
2022/04/08 11:30:34;;;;;;;5.60;2.00;;;6.40;76.60;;;;;;4895646;29;20064;-81
2022/04/08 11:33:15;;;;;;;4.72;2.05;;;6.40;76.60;;;;;;4897273;29;20048;-81
2022/04/08 11:35:43;;;;;;;4.72;1.90;;;6.40;76.60;;;;;;4896356;29;20528;-81
2022/04/08 11:38:14;;;;;;;5.95;2.55;;;6.40;76.60;;;;;;4881046;29;20116;-81
2022/04/08 11:40:42;;;;;;;11.32;7.20;;;6.40;76.60;;;;;;4895590;29;20414;-81
2022/04/08 11:43:27;;;;;;;9.25;4.97;;;6.40;76.60;;;;;;4897599;29;20510;-81
2022/04/08 11:45:53;;;;;;;10.80;4.78;;;6.40;76.60;;;;;;4895551;29;20096;-81
2022/04/08 11:48:23;;;;;;;7.32;4.55;;;6.40;76.70;;;;;;4895508;29;20049;-81
2022/04/08 11:50:53;;;;;;;8.63;3.95;;;6.40;76.60;;;;;;4895603;29;20099;-81
2022/04/08 11:53:22;;;;;;;6.65;3.80;;;6.40;76.60;;;;;;4897064;29;20049;-81
2022/04/08 11:55:53;;;;;;;8.27;3.25;;;6.40;76.60;;;;;;4897551;29;20498;-81
2022/04/08 11:58:20;;;;;;;6.68;3.50;;;6.40;76.60;;;;;;4898684;29;20048;-81
2022/04/08 12:00:51;;;;;;;7.88;3.58;;;6.40;76.60;;;;;;4895271;29;20577;-81
2022/04/08 12:03:23;;;;;;;8.23;3.03;;;6.40;76.60;;;;;;4895089;29;20053;-81
2022/04/08 12:05:51;;;;;;;6.57;3.13;;;6.40;76.60;;;;;;4894819;29;20049;-80
2022/04/08 12:08:37;;;;;;;6.13;3.10;;;6.40;76.60;;;;;;4895832;29;20171;-81
2022/04/08 12:11:09;;;;;;;6.00;3.00;;;6.40;76.60;;;;;;4896262;29;20129;-80
2022/04/08 12:13:40;;;;;;;5.97;3.05;;;6.40;76.60;;;;;;4898994;29;20139;-80
2022/04/08 12:16:10;;;;;;;6.50;3.30;;;6.40;76.60;;;;;;4895489;29;20062;-80
2022/04/08 12:18:49;;;;;;;7.82;3.17;;;6.40;76.60;;;;;;4894887;29;20415;-81
2022/04/08 12:21:28;;;;;;;8.35;3.20;;;6.40;76.60;;;;;;4894724;29;20455;-81
2022/04/08 12:23:56;;;;;;;5.93;2.65;;;6.40;76.60;;;;;;4895969;29;20057;-81
2022/04/08 12:26:32;;;;;;;5.88;2.80;;;6.40;76.60;;;;;;4894829;29;20498;-81
2022/04/08 12:29:17;;;;;;;7.55;2.80;;;6.40;76.60;;;;;;4896597;29;20059;-80
2022/04/08 12:31:54;;;;;;;8.63;3.10;;;6.40;76.70;;;;;;4894677;29;20454;-81
2022/04/08 12:34:22;;;;;;;8.40;2.80;;;6.40;76.70;;;;;;4898346;29;20426;-80
2022/04/08 12:36:49;;;;;;;11.75;2.97;;;6.40;76.70;;;;;;4893699;29;20104;-81
2022/04/08 12:39:17;;;;;;;5.90;2.40;;;6.30;76.60;;;;;;4895906;29;20421;-80
2022/04/08 12:41:46;;;;;;;5.05;2.35;;;6.30;76.60;;;;;;4894491;29;20462;-81
2022/04/08 12:44:14;;;;;;;6.25;2.53;;;6.30;76.50;;;;;;4879837;29;20052;-81
2022/04/08 12:46:41;;;;;;;6.43;2.38;;;6.30;76.50;;;;;;4898538;29;20053;-80
2022/04/08 12:49:07;;;;;;;6.40;2.30;;;6.30;76.40;;;;;;4894905;29;20060;-82
2022/04/08 12:51:35;;;;;;;7.18;2.75;;;6.30;76.40;;;;;;4895842;29;20108;-82
2022/04/08 12:54:03;;;;;;;6.38;2.30;;;6.30;76.40;;;;;;4895525;29;20052;-81
2022/04/08 12:56:30;;;;;;;7.68;2.30;;;6.20;76.40;;;;;;4894488;29;20060;-82
2022/04/08 12:58:58;;;;;;;5.90;1.80;;;6.20;76.40;;;;;;4896466;29;20525;-82
2022/04/08 13:01:25;;;;;;;5.03;2.40;;;6.20;76.50;;;;;;4896395;29;20413;-81